Time;durP1;ratioP1;P1;durP2;ratioP2;P2;SDS_P1;SDS_P2;PMS_P1;PMS_P2;Temp;Humidity;BMP_temperature;BMP_pressure;BME280_temperature;BME280_humidity;BME280_pressure;Samples;Min_cycle;Max_cycle;Signal;HPM_P1;HPM_P2
2022/08/10 00:01:14;;;;;;;5.43;2.10;;;18.30;99.90;;;;;;4975081;28;20232;-68
2022/08/10 00:03:41;;;;;;;2.70;2.20;;;18.20;99.90;;;;;;4974997;28;20271;-68
2022/08/10 00:06:08;;;;;;;3.60;2.10;;;18.20;99.90;;;;;;4974510;28;20204;-68
2022/08/10 00:08:35;;;;;;;2.40;1.90;;;18.20;99.90;;;;;;4975221;28;20266;-68
2022/08/10 00:11:02;;;;;;;7.67;2.17;;;18.10;99.90;;;;;;4974826;28;20238;-68
2022/08/10 00:13:29;;;;;;;4.07;2.00;;;18.10;99.90;;;;;;4973952;28;20282;-68
2022/08/10 00:15:56;;;;;;;6.50;2.80;;;18.00;99.90;;;;;;4974377;28;20295;-68
2022/08/10 00:18:25;;;;;;;2.60;1.93;;;17.90;99.90;;;;;;4975145;28;20630;-68
2022/08/10 00:20:52;;;;;;;2.27;1.90;;;17.90;99.90;;;;;;4975974;28;20301;-68
2022/08/10 00:23:19;;;;;;;2.57;2.10;;;17.80;99.90;;;;;;4982727;28;20208;-68
2022/08/10 00:25:46;;;;;;;3.33;2.00;;;17.80;99.90;;;;;;4992047;28;20208;-68
2022/08/10 00:28:13;;;;;;;4.53;1.90;;;17.70;99.90;;;;;;4991247;28;20223;-68
2022/08/10 00:30:40;;;;;;;3.13;2.13;;;17.70;99.90;;;;;;4974075;28;20212;-68
2022/08/10 00:33:06;;;;;;;6.03;1.80;;;17.70;99.90;;;;;;4974430;28;20212;-68
2022/08/10 00:35:34;;;;;;;4.30;2.10;;;17.60;99.90;;;;;;4974435;28;20228;-68
2022/08/10 00:38:01;;;;;;;3.33;2.20;;;17.50;99.90;;;;;;4973823;28;20694;-68
2022/08/10 00:40:28;;;;;;;4.57;2.23;;;17.50;99.90;;;;;;4974382;28;20263;-68
2022/08/10 00:42:54;;;;;;;2.37;1.80;;;17.50;99.90;;;;;;4974212;28;20372;-67
2022/08/10 00:45:21;;;;;;;5.03;2.13;;;17.50;99.90;;;;;;4974206;28;20208;-68
2022/08/10 00:47:48;;;;;;;3.47;2.00;;;17.40;99.90;;;;;;4973713;28;20212;-68
2022/08/10 00:50:16;;;;;;;3.53;1.93;;;17.40;99.90;;;;;;4975785;28;20212;-68
2022/08/10 00:52:45;;;;;;;4.63;2.10;;;17.40;99.90;;;;;;4975456;28;20228;-68
2022/08/10 00:55:12;;;;;;;5.90;2.27;;;17.40;99.90;;;;;;4975394;28;20335;-68
2022/08/10 00:57:40;;;;;;;3.93;1.90;;;17.40;99.90;;;;;;4975037;28;20212;-68
2022/08/10 01:00:09;;;;;;;4.20;1.90;;;17.40;99.90;;;;;;4975030;28;20216;-68
2022/08/10 01:02:36;;;;;;;5.93;2.13;;;17.40;99.90;;;;;;4973682;28;20236;-68
2022/08/10 01:05:06;;;;;;;7.63;2.50;;;17.40;99.90;;;;;;4974039;28;20205;-69
2022/08/10 01:07:45;;;;;;;5.03;2.33;;;17.30;99.90;;;;;;4973481;28;20204;-68
2022/08/10 01:10:26;;;;;;;3.87;2.30;;;17.20;99.90;;;;;;4973715;28;20215;-68
2022/08/10 01:13:01;;;;;;;3.00;2.50;;;17.20;99.90;;;;;;4973633;28;20738;-68
2022/08/10 01:15:31;;;;;;;4.13;2.27;;;17.20;99.90;;;;;;4973628;28;20286;-68
2022/08/10 01:18:02;;;;;;;4.00;2.20;;;17.20;99.90;;;;;;4973474;28;20259;-68
2022/08/10 01:20:36;;;;;;;2.57;2.30;;;17.20;99.90;;;;;;4973476;28;20671;-68
2022/08/10 01:23:27;;;;;;;5.50;2.40;;;17.10;99.90;;;;;;4973526;28;20561;-68
2022/08/10 01:26:11;;;;;;;3.07;2.27;;;17.20;1.00;;;;;;4973203;28;20270;-68
2022/08/10 01:28:49;;;;;;;2.70;2.30;;;17.10;1.00;;;;;;4973473;28;20266;-68
2022/08/10 01:31:23;;;;;;;3.90;2.80;;;17.10;1.00;;;;;;4973152;28;20268;-68
2022/08/10 01:33:54;;;;;;;3.43;2.50;;;17.00;1.00;;;;;;4973612;28;20255;-68
2022/08/10 01:36:28;;;;;;;5.07;2.37;;;17.00;1.00;;;;;;4973222;28;20255;-68
2022/08/10 01:38:58;;;;;;;5.93;2.50;;;16.90;1.00;;;;;;4973263;28;20223;-68
2022/08/10 01:41:29;;;;;;;2.90;2.60;;;16.90;1.00;;;;;;4973232;28;20279;-68
2022/08/10 01:44:01;;;;;;;3.73;2.60;;;16.90;1.00;;;;;;4973171;28;20204;-68
2022/08/10 01:46:30;;;;;;;7.97;2.90;;;16.80;19.00;;;;;;4973033;28;20212;-68
2022/08/10 01:48:59;;;;;;;5.50;2.70;;;16.80;99.90;;;;;;4973313;28;20275;-68
2022/08/10 01:51:31;;;;;;;6.90;2.70;;;16.80;99.90;;;;;;4973173;28;20597;-68
2022/08/10 01:54:01;;;;;;;3.57;2.73;;;16.80;99.90;;;;;;4973219;28;20208;-68
2022/08/10 01:56:30;;;;;;;4.67;3.00;;;16.80;99.90;;;;;;4972655;28;20264;-67
2022/08/10 01:58:59;;;;;;;3.70;2.40;;;16.70;99.90;;;;;;4973482;28;20578;-68
2022/08/10 02:01:32;;;;;;;4.10;3.13;;;16.60;1.00;;;;;;4972843;28;20224;-68
2022/08/10 02:04:03;;;;;;;3.10;2.80;;;16.50;99.90;;;;;;4972514;28;20645;-67
2022/08/10 02:06:32;;;;;;;5.03;3.30;;;16.50;1.00;;;;;;4972499;28;20694;-68
2022/08/10 02:09:00;;;;;;;5.63;2.80;;;16.50;95.50;;;;;;4972901;28;20266;-67
2022/08/10 02:11:28;;;;;;;4.80;2.90;;;16.50;99.90;;;;;;4972996;28;20298;-68
2022/08/10 02:13:56;;;;;;;4.73;2.73;;;16.50;99.90;;;;;;4973119;28;20304;-68
2022/08/10 02:16:25;;;;;;;5.97;3.00;;;16.50;12.90;;;;;;4972499;28;20707;-68
2022/08/10 02:18:54;;;;;;;4.43;3.23;;;16.40;1.00;;;;;;4972914;28;20636;-68
2022/08/10 02:21:24;;;;;;;4.07;2.77;;;16.40;1.00;;;;;;4972820;28;20228;-68
2022/08/10 02:23:52;;;;;;;8.37;3.10;;;16.40;99.90;;;;;;4972965;28;20208;-68
2022/08/10 02:26:19;;;;;;;4.03;2.80;;;16.30;99.90;;;;;;4972447;28;20671;-68
2022/08/10 02:28:47;;;;;;;6.13;3.20;;;16.30;99.90;;;;;;4972844;28;20212;-68
2022/08/10 02:31:18;;;;;;;3.63;2.83;;;16.30;93.80;;;;;;4972704;28;20236;-68
2022/08/10 02:33:48;;;;;;;4.30;3.10;;;16.30;99.90;;;;;;4972942;28;20215;-68
2022/08/10 02:36:18;;;;;;;4.73;2.97;;;16.30;99.90;;;;;;4972341;28;20810;-68
2022/08/10 02:38:49;;;;;;;4.40;3.03;;;16.20;99.90;;;;;;4976487;28;20679;-68
2022/08/10 02:41:20;;;;;;;3.10;2.80;;;16.20;99.90;;;;;;4976643;28;20235;-68
2022/08/10 02:43:50;;;;;;;5.93;3.43;;;16.20;99.90;;;;;;4976298;28;20259;-68
2022/08/10 02:46:25;;;;;;;4.07;3.27;;;16.20;99.90;;;;;;4976229;28;20675;-68
2022/08/10 02:48:58;;;;;;;4.40;3.10;;;16.10;99.90;;;;;;4976631;28;20274;-68
2022/08/10 02:51:33;;;;;;;5.87;3.27;;;16.20;99.90;;;;;;4976558;28;20232;-68
2022/08/10 02:54:07;;;;;;;5.10;3.27;;;16.20;99.90;;;;;;4976439;28;20208;-68
2022/08/10 02:56:38;;;;;;;4.77;3.40;;;16.10;1.00;;;;;;4976086;28;20283;-68
2022/08/10 02:59:10;;;;;;;5.20;3.10;;;16.10;1.00;;;;;;4976140;28;20236;-68
2022/08/10 03:01:41;;;;;;;6.83;3.50;;;16.00;1.00;;;;;;4976411;28;20232;-68
2022/08/10 03:04:13;;;;;;;6.60;4.07;;;16.00;1.00;;;;;;4976312;28;20216;-68
2022/08/10 03:06:43;;;;;;;5.57;3.50;;;16.00;1.00;;;;;;4975881;28;20208;-68
2022/08/10 03:09:15;;;;;;;4.37;3.50;;;16.00;1.00;;;;;;4976110;28;20212;-67
2022/08/10 03:11:44;;;;;;;5.03;3.97;;;15.90;1.00;;;;;;4976022;28;20722;-68
2022/08/10 03:14:11;;;;;;;5.37;3.73;;;15.90;1.00;;;;;;4975977;28;20216;-68
2022/08/10 03:16:39;;;;;;;5.77;4.20;;;15.90;1.00;;;;;;4975690;28;20236;-68
2022/08/10 03:19:08;;;;;;;5.60;3.50;;;15.90;1.00;;;;;;4975963;28;20667;-68
2022/08/10 03:21:36;;;;;;;5.00;3.87;;;15.90;1.00;;;;;;4975675;28;20232;-68
2022/08/10 03:24:07;;;;;;;6.20;3.70;;;15.80;1.00;;;;;;4975901;28;20676;-68
2022/08/10 03:26:34;;;;;;;7.40;3.67;;;15.80;1.00;;;;;;4975739;28;20211;-67
2022/08/10 03:29:03;;;;;;;5.97;3.90;;;15.80;1.00;;;;;;4975625;28;20209;-68
2022/08/10 03:31:32;;;;;;;6.17;4.00;;;15.80;1.00;;;;;;4975290;28;20232;-68
2022/08/10 03:34:01;;;;;;;6.47;4.30;;;15.80;1.00;;;;;;4975555;28;20258;-68
2022/08/10 03:36:28;;;;;;;5.33;4.37;;;15.80;1.00;;;;;;4974867;28;20220;-68
2022/08/10 03:38:55;;;;;;;6.13;3.83;;;15.80;1.00;;;;;;4975306;28;20271;-68
2022/08/10 03:41:29;;;;;;;6.30;4.30;;;15.70;1.00;;;;;;4975528;28;20657;-68
2022/08/10 03:43:58;;;;;;;5.33;4.53;;;15.70;1.00;;;;;;4975348;28;20212;-69
2022/08/10 03:46:27;;;;;;;5.37;3.90;;;15.70;1.00;;;;;;4975114;28;20204;-68
2022/08/10 03:48:57;;;;;;;5.43;3.57;;;15.60;1.00;;;;;;4973899;28;20757;-68
2022/08/10 03:51:26;;;;;;;5.20;3.90;;;15.60;1.00;;;;;;4975081;28;20228;-68
2022/08/10 03:53:53;;;;;;;7.77;4.40;;;15.60;1.00;;;;;;4975318;28;20212;-68
2022/08/10 03:56:20;;;;;;;5.57;4.23;;;15.60;1.00;;;;;;4974957;28;20235;-68
2022/08/10 03:58:48;;;;;;;6.37;4.27;;;15.60;1.00;;;;;;4975496;28;20586;-68
2022/08/10 04:01:16;;;;;;;7.17;4.63;;;15.60;1.00;;;;;;4990057;28;20259;-68
2022/08/10 04:03:43;;;;;;;8.57;4.70;;;15.60;1.00;;;;;;4992410;28;20236;-69
2022/08/10 04:06:10;;;;;;;12.77;4.90;;;15.60;1.00;;;;;;4979953;28;20213;-67
2022/08/10 04:08:40;;;;;;;11.33;5.13;;;15.60;1.00;;;;;;4974738;28;20208;-67
2022/08/10 04:11:07;;;;;;;7.70;5.10;;;15.60;1.00;;;;;;4974531;28;20236;-68
2022/08/10 04:13:34;;;;;;;7.13;5.00;;;15.60;1.00;;;;;;4974769;28;20243;-67
2022/08/10 04:16:02;;;;;;;15.47;4.47;;;15.50;1.00;;;;;;4974170;28;20227;-68
2022/08/10 04:18:29;;;;;;;7.57;4.80;;;15.60;1.00;;;;;;4974929;28;20219;-68
2022/08/10 04:21:01;;;;;;;6.17;4.57;;;15.60;1.00;;;;;;4974615;28;20671;-68
2022/08/10 04:23:32;;;;;;;7.80;4.57;;;15.60;1.00;;;;;;4974715;28;20212;-68
2022/08/10 04:25:59;;;;;;;6.80;4.60;;;15.60;1.00;;;;;;4974328;28;20204;-68
2022/08/10 04:28:26;;;;;;;8.57;5.40;;;15.60;1.00;;;;;;4974594;28;20244;-68
2022/08/10 04:30:55;;;;;;;7.40;4.70;;;15.70;1.00;;;;;;4974506;28;20209;-68
2022/08/10 04:33:26;;;;;;;7.03;4.77;;;15.70;1.00;;;;;;4974758;28;20255;-67
2022/08/10 04:35:54;;;;;;;6.90;4.80;;;15.70;1.00;;;;;;4973982;28;20232;-68
2022/08/10 04:38:22;;;;;;;10.93;4.80;;;15.70;1.00;;;;;;4974249;28;20255;-68
2022/08/10 04:40:48;;;;;;;7.27;4.57;;;15.70;1.00;;;;;;4974121;28;20216;-67
2022/08/10 04:43:15;;;;;;;5.30;4.20;;;15.80;1.00;;;;;;4973991;28;20208;-68
2022/08/10 04:45:43;;;;;;;9.07;4.13;;;15.80;1.00;;;;;;4974353;28;20204;-68
2022/08/10 04:48:10;;;;;;;7.20;4.50;;;15.80;1.00;;;;;;4974009;28;20216;-68
2022/08/10 04:50:38;;;;;;;5.23;4.07;;;15.80;1.00;;;;;;4974181;28;20212;-67
2022/08/10 04:53:05;;;;;;;6.67;4.00;;;15.80;1.00;;;;;;4974006;28;20211;-68
2022/08/10 04:55:31;;;;;;;5.53;4.23;;;15.90;1.00;;;;;;4973916;28;20315;-68
2022/08/10 04:57:58;;;;;;;7.40;4.57;;;15.90;1.00;;;;;;4973563;28;20211;-68
2022/08/10 05:00:25;;;;;;;5.80;4.47;;;15.90;1.00;;;;;;4973739;28;20262;-68
2022/08/10 05:02:52;;;;;;;6.83;4.40;;;15.90;1.00;;;;;;4973881;28;20232;-67
2022/08/10 05:05:19;;;;;;;7.13;4.50;;;15.90;1.00;;;;;;4973781;28;20669;-68
2022/08/10 05:07:47;;;;;;;5.87;4.20;;;15.90;1.00;;;;;;4973423;28;20204;-68
2022/08/10 05:10:13;;;;;;;7.70;4.57;;;16.00;1.00;;;;;;4973591;28;20263;-68
2022/08/10 05:12:40;;;;;;;5.93;4.33;;;16.00;1.00;;;;;;4973754;28;20298;-68
2022/08/10 05:15:09;;;;;;;6.33;4.20;;;16.10;1.00;;;;;;4973893;28;20306;-68
2022/08/10 05:17:36;;;;;;;6.27;4.50;;;16.10;1.00;;;;;;4973109;28;20231;-68
2022/08/10 05:20:03;;;;;;;5.57;4.10;;;16.20;1.00;;;;;;4973559;28;20219;-68
2022/08/10 05:22:30;;;;;;;7.00;4.30;;;16.30;1.00;;;;;;4973472;28;20223;-68
2022/08/10 05:24:58;;;;;;;6.47;4.13;;;16.30;1.00;;;;;;4973527;28;20255;-68
2022/08/10 05:27:24;;;;;;;6.23;4.53;;;16.30;1.00;;;;;;4974580;28;20209;-68
2022/08/10 05:29:51;;;;;;;5.17;4.20;;;16.40;1.00;;;;;;4974737;28;20274;-68
2022/08/10 05:32:18;;;;;;;9.43;4.40;;;16.40;1.00;;;;;;4976559;28;20244;-68
2022/08/10 05:34:45;;;;;;;5.83;4.70;;;16.40;1.00;;;;;;4975829;28;20208;-69
2022/08/10 05:37:12;;;;;;;9.87;4.90;;;16.50;99.90;;;;;;4973681;28;20283;-68
2022/08/10 05:39:40;;;;;;;7.30;4.60;;;16.50;99.90;;;;;;4973467;28;20556;-68
2022/08/10 05:42:09;;;;;;;6.77;4.40;;;16.60;99.90;;;;;;4973276;28;20356;-66
2022/08/10 05:44:36;;;;;;;6.03;4.30;;;16.60;99.90;;;;;;4973317;28;20270;-66
2022/08/10 05:47:02;;;;;;;8.20;4.30;;;16.70;99.90;;;;;;4973239;28;20204;-66
2022/08/10 05:49:29;;;;;;;7.90;4.30;;;16.80;99.90;;;;;;4973451;28;20212;-66
2022/08/10 05:51:56;;;;;;;6.70;4.43;;;16.80;99.90;;;;;;4973120;28;20224;-66
2022/08/10 05:54:24;;;;;;;7.63;4.03;;;16.90;99.90;;;;;;4973305;28;20204;-66
2022/08/10 05:56:52;;;;;;;9.73;4.30;;;17.00;99.90;;;;;;4972937;28;20285;-66
2022/08/10 05:59:21;;;;;;;6.43;4.57;;;17.10;1.00;;;;;;4973250;28;20259;-66
2022/08/10 06:01:51;;;;;;;9.07;4.97;;;17.20;1.00;;;;;;4972913;28;20229;-66
2022/08/10 06:04:28;;;;;;;6.70;4.30;;;17.30;1.00;;;;;;4973111;28;20757;-66
2022/08/10 06:06:55;;;;;;;6.07;4.23;;;17.40;99.90;;;;;;4972797;28;20259;-66
2022/08/10 06:09:25;;;;;;;6.47;4.20;;;17.50;99.90;;;;;;4973236;28;20212;-67
2022/08/10 06:11:52;;;;;;;7.30;4.20;;;17.50;99.90;;;;;;4974013;28;20636;-66
2022/08/10 06:17:05;;;;;;;9.30;4.07;;;17.70;99.90;;;;;;4976594;28;20234;-67
2022/08/10 06:19:34;;;;;;;6.10;4.20;;;17.80;1.00;;;;;;4976986;28;20712;-66
2022/08/10 06:22:02;;;;;;;5.80;4.07;;;17.80;1.00;;;;;;4976847;28;20279;-66
2022/08/10 06:24:30;;;;;;;4.80;3.90;;;17.90;1.00;;;;;;4976743;28;20218;-70
2022/08/10 06:26:56;;;;;;;8.40;4.47;;;18.00;99.90;;;;;;4976735;28;20208;-66
2022/08/10 06:29:26;;;;;;;6.50;4.73;;;18.00;1.00;;;;;;4976769;28;20208;-66
2022/08/10 06:31:54;;;;;;;6.63;4.43;;;18.20;1.00;;;;;;4976773;28;20648;-65
2022/08/10 06:34:24;;;;;;;7.40;3.67;;;18.20;99.90;;;;;;4976797;28;20209;-64
2022/08/10 06:36:52;;;;;;;7.67;4.73;;;18.40;99.90;;;;;;4976381;28;20224;-65
2022/08/10 06:39:19;;;;;;;6.50;3.50;;;18.50;99.90;;;;;;4976393;28;20236;-65
2022/08/10 06:41:49;;;;;;;12.00;5.03;;;18.50;99.90;;;;;;4976563;28;20256;-64
2022/08/10 06:44:22;;;;;;;7.17;4.63;;;18.70;99.90;;;;;;4976445;28;20384;-63
2022/08/10 06:46:53;;;;;;;9.13;4.40;;;18.80;99.90;;;;;;4976264;28;20629;-62
2022/08/10 06:49:23;;;;;;;24.60;13.97;;;18.80;99.90;;;;;;4976434;28;20215;-61
2022/08/10 06:51:54;;;;;;;7.00;4.27;;;19.00;99.90;;;;;;4976230;28;20224;-65
2022/08/10 06:54:24;;;;;;;5.87;4.50;;;19.10;99.90;;;;;;4976031;28;20754;-65
2022/08/10 06:56:54;;;;;;;7.43;4.40;;;19.20;99.90;;;;;;4975777;28;20232;-64
2022/08/10 06:59:25;;;;;;;9.83;3.93;;;19.30;99.90;;;;;;4976024;28;20671;-65
2022/08/10 07:01:58;;;;;;;4.87;3.20;;;19.40;99.90;;;;;;4976118;28;20711;-65
2022/08/10 07:04:28;;;;;;;6.00;3.77;;;19.50;99.90;;;;;;4976089;28;20235;-65
2022/08/10 07:06:57;;;;;;;5.50;3.70;;;19.60;99.90;;;;;;4975635;28;20259;-65
2022/08/10 07:09:25;;;;;;;7.03;3.57;;;19.60;99.90;;;;;;4976046;28;20219;-64
2022/08/10 07:11:52;;;;;;;9.90;3.90;;;19.70;99.90;;;;;;4976000;28;20663;-65
2022/08/10 07:14:21;;;;;;;6.03;3.80;;;19.70;99.90;;;;;;4975850;28;20204;-65
2022/08/10 07:16:48;;;;;;;6.27;3.50;;;19.80;99.90;;;;;;4975495;28;20738;-65
2022/08/10 07:19:18;;;;;;;7.73;4.03;;;19.90;99.90;;;;;;4975715;28;20212;-65
2022/08/10 07:21:46;;;;;;;5.17;3.70;;;20.00;99.90;;;;;;4975567;28;20288;-65
2022/08/10 07:24:15;;;;;;;6.20;3.70;;;20.00;99.90;;;;;;4975299;28;20283;-65
2022/08/10 07:26:46;;;;;;;10.20;4.30;;;20.10;99.90;;;;;;4975264;28;20205;-64
2022/08/10 07:29:15;;;;;;;8.47;4.77;;;20.30;99.90;;;;;;4988544;28;20209;-65
2022/08/10 07:31:43;;;;;;;7.93;3.07;;;20.40;99.90;;;;;;4988568;28;20289;-64
2022/08/10 07:34:11;;;;;;;8.10;4.80;;;20.60;99.90;;;;;;4984659;28;20246;-63
2022/08/10 07:36:40;;;;;;;12.80;5.80;;;20.80;99.90;;;;;;4976070;28;20654;-64
2022/08/10 07:39:09;;;;;;;5.77;3.47;;;20.90;99.90;;;;;;4973177;28;20208;-67
2022/08/10 07:41:40;;;;;;;7.63;3.33;;;21.10;99.90;;;;;;4969018;28;20243;-65
2022/08/10 07:44:09;;;;;;;5.53;3.27;;;21.20;99.90;;;;;;4974156;28;20672;-65
2022/08/10 07:46:40;;;;;;;6.17;3.10;;;21.30;99.90;;;;;;4974167;28;20209;-65
2022/08/10 07:49:12;;;;;;;6.13;3.03;;;21.30;99.90;;;;;;4975091;28;20204;-65
2022/08/10 07:51:41;;;;;;;4.77;3.00;;;21.40;99.90;;;;;;4974462;28;20235;-65
2022/08/10 07:54:14;;;;;;;6.93;3.07;;;21.50;99.90;;;;;;4974613;28;20259;-65
2022/08/10 07:56:43;;;;;;;9.53;3.13;;;21.70;99.90;;;;;;4974299;28;20224;-66
2022/08/10 07:59:14;;;;;;;10.50;3.00;;;21.90;99.90;;;;;;4974314;28;20212;-66
2022/08/10 08:01:44;;;;;;;6.50;2.93;;;22.00;99.90;;;;;;4972981;28;20275;-65
2022/08/10 08:04:13;;;;;;;7.27;2.77;;;22.20;99.90;;;;;;4974768;28;20209;-65
2022/08/10 08:06:43;;;;;;;11.93;3.13;;;22.40;99.90;;;;;;4974050;28;20212;-65
2022/08/10 08:09:11;;;;;;;5.27;3.13;;;22.50;99.90;;;;;;4974136;28;20208;-64
2022/08/10 08:11:41;;;;;;;3.63;2.83;;;22.50;99.90;;;;;;4973968;28;20243;-64
2022/08/10 08:14:09;;;;;;;3.90;2.83;;;22.60;99.90;;;;;;4974603;28;20212;-64
2022/08/10 08:16:39;;;;;;;6.70;2.80;;;22.70;99.90;;;;;;4974143;28;20228;-64
2022/08/10 08:19:07;;;;;;;3.83;2.60;;;22.90;99.90;;;;;;4974363;28;20204;-64
2022/08/10 08:21:34;;;;;;;8.13;2.63;;;23.00;99.90;;;;;;4973841;28;20789;-64
2022/08/10 08:24:03;;;;;;;5.87;2.90;;;23.10;99.90;;;;;;4973857;28;20259;-63
2022/08/10 08:26:30;;;;;;;3.83;2.63;;;23.20;99.90;;;;;;4973900;28;20232;-65
2022/08/10 08:28:58;;;;;;;3.50;2.37;;;23.40;99.90;;;;;;4974080;28;20675;-64
2022/08/10 08:31:25;;;;;;;6.27;3.03;;;23.40;99.90;;;;;;4973597;28;20232;-63
2022/08/10 08:33:54;;;;;;;6.73;2.70;;;23.50;99.90;;;;;;4973528;28;20671;-63
2022/08/10 08:36:21;;;;;;;5.87;3.03;;;23.60;99.90;;;;;;4972841;28;20259;-63
2022/08/10 08:38:49;;;;;;;5.13;2.73;;;23.60;99.90;;;;;;4973555;28;20208;-64
2022/08/10 08:41:45;;;;;;;3.47;2.80;;;23.60;99.90;;;;;;4973817;28;20239;-64
2022/08/10 08:44:23;;;;;;;4.07;2.50;;;23.60;99.90;;;;;;4973922;28;20236;-65
2022/08/10 08:47:06;;;;;;;7.40;3.10;;;23.80;99.90;;;;;;4973562;28;20208;-66
2022/08/10 08:50:03;;;;;;;6.13;3.53;;;24.00;99.90;;;;;;4973714;28;20255;-65
2022/08/10 08:52:37;;;;;;;7.23;2.93;;;24.10;99.90;;;;;;4973434;28;20228;-65
2022/08/10 08:55:17;;;;;;;5.07;2.90;;;24.30;99.90;;;;;;4972147;28;20218;-63
2022/08/10 08:57:53;;;;;;;6.33;2.87;;;24.40;99.90;;;;;;4973338;28;20224;-64
2022/08/10 09:00:40;;;;;;;5.57;3.10;;;24.50;99.90;;;;;;4973767;28;20212;-64
2022/08/10 09:03:21;;;;;;;6.70;2.90;;;24.60;99.90;;;;;;4973092;28;20211;-65
2022/08/10 09:05:59;;;;;;;5.20;2.93;;;24.50;99.90;;;;;;4973211;28;20209;-65
2022/08/10 09:09:09;;;;;;;3.73;2.63;;;24.70;99.90;;;;;;4972175;28;20204;-65
2022/08/10 09:11:50;;;;;;;6.77;2.80;;;24.80;99.90;;;;;;4971324;28;20224;-69
2022/08/10 09:14:25;;;;;;;4.27;2.60;;;25.00;99.90;;;;;;4972947;28;20216;-64
2022/08/10 09:16:59;;;;;;;7.87;2.90;;;25.10;99.90;;;;;;4972930;28;20710;-67
2022/08/10 09:19:36;;;;;;;6.37;2.67;;;25.20;99.90;;;;;;4973169;28;20215;-69
2022/08/10 09:22:07;;;;;;;6.63;2.73;;;25.30;99.90;;;;;;4973018;28;20282;-68
2022/08/10 09:24:43;;;;;;;4.87;3.07;;;25.30;99.90;;;;;;4972919;28;20215;-68
2022/08/10 09:27:17;;;;;;;5.30;2.80;;;25.40;99.90;;;;;;4972920;28;20212;-69
2022/08/10 09:29:53;;;;;;;7.40;2.70;;;25.40;99.90;;;;;;4972987;28;20678;-67
2022/08/10 09:32:31;;;;;;;5.17;2.77;;;25.50;99.90;;;;;;4972406;28;20243;-70
2022/08/10 09:35:07;;;;;;;10.07;2.97;;;25.50;99.90;;;;;;4972751;28;20204;-68
2022/08/10 09:37:43;;;;;;;6.33;3.40;;;25.50;99.90;;;;;;4972423;28;20346;-65
2022/08/10 09:40:17;;;;;;;4.67;2.57;;;25.70;99.90;;;;;;4972950;28;20216;-65
2022/08/10 09:42:50;;;;;;;5.23;2.73;;;25.90;99.90;;;;;;4972382;28;20228;-62
2022/08/10 09:45:26;;;;;;;5.93;2.70;;;25.90;99.90;;;;;;4972575;28;20208;-63
2022/08/10 09:48:02;;;;;;;3.33;2.57;;;26.00;99.90;;;;;;4972507;28;20248;-63
2022/08/10 09:50:40;;;;;;;4.07;2.60;;;26.10;99.90;;;;;;4972784;28;20215;-63
2022/08/10 09:53:15;;;;;;;8.43;3.10;;;26.20;99.90;;;;;;4972368;28;20259;-63
2022/08/10 09:55:52;;;;;;;4.57;2.50;;;26.30;99.90;;;;;;4972549;28;20258;-64
2022/08/10 09:58:30;;;;;;;5.70;2.70;;;26.20;99.90;;;;;;4972668;28;20231;-66
2022/08/10 10:01:19;;;;;;;4.77;2.87;;;26.20;99.90;;;;;;4972648;28;20307;-64
2022/08/10 10:03:55;;;;;;;4.47;2.63;;;26.20;99.90;;;;;;4972534;28;20235;-67
2022/08/10 10:06:28;;;;;;;6.27;3.03;;;26.20;99.90;;;;;;4972390;28;20219;-66
2022/08/10 10:09:02;;;;;;;4.33;2.93;;;26.30;99.90;;;;;;4972701;28;20204;-65
2022/08/10 10:11:41;;;;;;;4.97;2.90;;;26.40;99.90;;;;;;4972668;28;20642;-66
2022/08/10 10:14:15;;;;;;;6.40;3.23;;;26.50;99.90;;;;;;4972305;28;20320;-68
2022/08/10 10:17:00;;;;;;;8.00;3.10;;;26.70;99.90;;;;;;4972199;28;20235;-67
2022/08/10 10:19:39;;;;;;;4.57;2.73;;;26.80;99.90;;;;;;4972623;28;20204;-66
2022/08/10 10:22:25;;;;;;;4.27;2.87;;;26.90;99.90;;;;;;4972260;28;20323;-66
2022/08/10 10:24:58;;;;;;;4.63;2.60;;;26.70;99.90;;;;;;4972447;28;20212;-66
2022/08/10 10:27:39;;;;;;;5.50;2.40;;;26.80;99.90;;;;;;4972105;28;20275;-66
2022/08/10 10:30:09;;;;;;;5.07;3.10;;;26.90;99.90;;;;;;4968979;28;20211;-64
2022/08/10 10:32:52;;;;;;;5.17;3.03;;;26.90;99.90;;;;;;4971861;28;20734;-65
2022/08/10 10:35:24;;;;;;;5.73;2.70;;;26.80;99.90;;;;;;4972631;28;20268;-63
2022/08/10 10:37:53;;;;;;;3.53;2.23;;;26.90;99.90;;;;;;4972436;28;20294;-66
2022/08/10 10:40:23;;;;;;;4.00;2.70;;;27.10;99.90;;;;;;4972288;28;20208;-65
2022/08/10 10:43:03;;;;;;;5.27;2.70;;;27.20;99.90;;;;;;4971798;28;20661;-65
2022/08/10 10:45:38;;;;;;;5.50;3.10;;;27.20;99.90;;;;;;4972261;28;20679;-65
2022/08/10 10:48:16;;;;;;;6.70;3.03;;;27.30;99.90;;;;;;4972087;28;20216;-67
2022/08/10 10:50:55;;;;;;;7.50;2.60;;;27.40;99.90;;;;;;4972163;28;20212;-66
2022/08/10 10:53:30;;;;;;;4.13;3.07;;;27.30;99.90;;;;;;4971968;28;20213;-67
2022/08/10 10:56:04;;;;;;;5.43;2.83;;;27.10;99.90;;;;;;4971508;28;20767;-68
2022/08/10 10:58:41;;;;;;;4.60;2.63;;;27.00;99.90;;;;;;4971154;28;20236;-68
2022/08/10 11:01:25;;;;;;;3.50;2.70;;;27.20;99.90;;;;;;4975702;28;20234;-67
2022/08/10 11:04:15;;;;;;;4.07;2.60;;;27.30;99.90;;;;;;4976055;28;20212;-64
2022/08/10 11:06:52;;;;;;;3.60;2.30;;;27.50;99.90;;;;;;4975103;28;20208;-65
2022/08/10 11:09:23;;;;;;;3.80;3.17;;;27.40;99.90;;;;;;4975273;28;20204;-67
2022/08/10 11:11:57;;;;;;;4.57;2.80;;;27.30;99.90;;;;;;4982892;28;20442;-66
2022/08/10 11:14:32;;;;;;;6.43;3.13;;;27.20;99.90;;;;;;4990607;28;20240;-65
2022/08/10 11:17:05;;;;;;;6.10;2.67;;;27.40;99.90;;;;;;4984695;28;20204;-65
2022/08/10 11:19:42;;;;;;;7.07;2.70;;;27.60;99.90;;;;;;4974787;28;20208;-66
2022/08/10 11:22:14;;;;;;;5.10;2.83;;;27.70;99.90;;;;;;4974391;28;20228;-65
2022/08/10 11:24:51;;;;;;;4.53;2.70;;;27.70;99.90;;;;;;4974702;28;20283;-65
2022/08/10 11:27:25;;;;;;;4.57;2.57;;;27.80;99.90;;;;;;4973663;28;20208;-65
2022/08/10 11:30:00;;;;;;;5.17;2.43;;;27.90;99.90;;;;;;4974407;28;20208;-66
2022/08/10 11:32:36;;;;;;;4.03;2.60;;;27.70;99.90;;;;;;4973170;28;20236;-67
2022/08/10 11:35:15;;;;;;;4.37;2.77;;;27.80;99.90;;;;;;4975288;28;20208;-66
2022/08/10 11:37:55;;;;;;;4.73;3.57;;;27.70;99.90;;;;;;4974085;28;20274;-67
2022/08/10 11:40:27;;;;;;;3.67;2.23;;;27.80;99.90;;;;;;4974981;28;20208;-64
2022/08/10 11:43:07;;;;;;;3.97;2.37;;;27.80;99.90;;;;;;4967152;28;20232;-64
2022/08/10 11:45:41;;;;;;;3.53;2.60;;;27.90;99.90;;;;;;4968646;28;20204;-64
2022/08/10 11:48:12;;;;;;;2.27;2.00;;;28.00;99.90;;;;;;4974543;28;20651;-64
2022/08/10 11:50:47;;;;;;;7.20;2.43;;;28.00;99.90;;;;;;4975110;28;20282;-65
2022/08/10 11:53:26;;;;;;;12.27;2.57;;;28.00;99.90;;;;;;4974663;28;20635;-64
2022/08/10 11:55:56;;;;;;;4.50;2.37;;;28.20;99.90;;;;;;4974264;28;20208;-64
2022/08/10 12:01:17;;;;;;;3.70;2.30;;;27.80;99.90;;;;;;4974496;28;20223;-63
2022/08/10 12:03:47;;;;;;;2.73;2.10;;;27.80;99.90;;;;;;4974822;28;20212;-64
2022/08/10 12:06:17;;;;;;;4.90;2.20;;;27.80;99.90;;;;;;4974140;28;20627;-63
2022/08/10 12:08:47;;;;;;;3.23;2.10;;;27.90;99.90;;;;;;4974222;28;20287;-63
2022/08/10 12:11:15;;;;;;;3.07;2.17;;;27.80;99.90;;;;;;4972762;28;20283;-63
2022/08/10 12:13:48;;;;;;;6.37;2.00;;;27.90;99.90;;;;;;4974461;28;20212;-63
2022/08/10 12:16:18;;;;;;;2.67;1.87;;;28.00;99.90;;;;;;4973900;28;20216;-63
2022/08/10 12:18:48;;;;;;;3.40;1.90;;;28.20;99.90;;;;;;4974267;28;20785;-63
2022/08/10 12:21:22;;;;;;;2.00;1.73;;;28.50;99.90;;;;;;4974177;28;20275;-66
2022/08/10 12:23:54;;;;;;;3.97;1.80;;;28.50;99.90;;;;;;4972116;28;20212;-65
2022/08/10 12:26:26;;;;;;;5.63;2.13;;;28.60;99.90;;;;;;4972582;28;20243;-66
2022/08/10 12:29:00;;;;;;;4.17;2.20;;;28.50;99.90;;;;;;4974175;28;20212;-66
2022/08/10 12:31:33;;;;;;;2.77;1.90;;;28.60;99.90;;;;;;4974182;28;20239;-67
2022/08/10 12:34:15;;;;;;;2.50;1.80;;;28.50;99.90;;;;;;4973862;28;20220;-66
2022/08/10 12:36:47;;;;;;;3.93;2.33;;;28.30;99.90;;;;;;4973884;28;20641;-66
2022/08/10 12:39:18;;;;;;;3.10;2.00;;;28.20;99.90;;;;;;4974041;28;20331;-67
2022/08/10 12:41:52;;;;;;;8.60;2.50;;;28.40;99.90;;;;;;4973957;28;20236;-66
2022/08/10 12:44:27;;;;;;;3.93;2.23;;;28.50;99.90;;;;;;4973545;28;20251;-65
2022/08/10 12:46:59;;;;;;;4.73;2.20;;;28.40;99.90;;;;;;4973741;28;20286;-66
2022/08/10 12:49:30;;;;;;;2.33;2.03;;;28.50;99.90;;;;;;4973923;28;20267;-67
2022/08/10 12:52:05;;;;;;;3.77;2.10;;;28.30;99.90;;;;;;4973823;28;20225;-67
2022/08/10 12:54:36;;;;;;;4.23;2.20;;;28.30;99.90;;;;;;4973530;28;20649;-64
2022/08/10 12:57:07;;;;;;;2.93;1.93;;;28.20;99.90;;;;;;4973175;28;20705;-66
2022/08/10 12:59:37;;;;;;;2.50;1.90;;;28.30;99.90;;;;;;4973475;28;20232;-65
2022/08/10 13:02:05;;;;;;;3.43;2.13;;;28.40;99.90;;;;;;4973453;28;20314;-65
2022/08/10 13:04:35;;;;;;;3.27;1.57;;;28.30;99.90;;;;;;4973224;28;20594;-66
2022/08/10 13:07:05;;;;;;;3.43;2.00;;;28.30;99.90;;;;;;4973017;28;20259;-65
2022/08/10 13:09:35;;;;;;;2.57;1.80;;;28.30;99.90;;;;;;4973345;28;20204;-66
2022/08/10 13:12:05;;;;;;;5.23;2.50;;;28.20;99.90;;;;;;4973323;28;20242;-64
2022/08/10 13:14:36;;;;;;;2.10;1.70;;;28.30;99.90;;;;;;4973200;28;20259;-64